createdAt,value
2023-03-06T04:27:16.266Z,80.90
2023-03-06T04:32:21.519Z,82.01
2023-03-06T04:37:26.533Z,82.09
2023-03-06T04:42:31.166Z,82.80
2023-03-06T04:47:34.521Z,83.31
2023-03-06T04:52:37.880Z,82.82
2023-03-06T04:57:43.072Z,83.32
2023-03-06T05:02:47.563Z,84.15
2023-03-06T05:07:51.953Z,84.37
2023-03-06T05:12:55.870Z,83.77
2023-03-06T05:17:59.380Z,83.19
2023-03-06T05:23:02.713Z,83.07
2023-03-06T05:28:06.926Z,82.81
2023-03-06T05:33:11.077Z,82.91
2023-03-06T05:38:15.946Z,82.01
2023-03-06T05:43:19.234Z,80.87
2023-03-06T05:48:22.594Z,79.63
2023-03-06T05:53:26.990Z,79.21
2023-03-06T05:58:34.756Z,78.80
2023-03-06T06:03:40.935Z,79.20
2023-03-06T06:08:44.701Z,78.05
2023-03-06T06:13:48.904Z,77.95
2023-03-06T06:18:52.331Z,77.85
2023-03-06T06:23:55.607Z,76.91
2023-03-06T06:29:00.239Z,76.54
2023-03-06T06:34:05.965Z,75.72
2023-03-06T06:39:09.952Z,75.96
2023-03-06T06:44:15.621Z,74.55
2023-03-06T06:49:18.920Z,74.86
2023-03-06T06:54:23.837Z,75.03
2023-03-06T06:59:27.251Z,73.27
2023-03-06T07:04:30.534Z,70.87
2023-03-06T07:09:33.811Z,67.63
2023-03-06T07:14:37.443Z,64.53
2023-03-06T07:19:40.795Z,62.96
2023-03-06T07:24:44.050Z,60.96
2023-03-06T07:29:48.661Z,60.87
2023-03-06T07:34:51.829Z,62.51
2023-03-06T07:39:55.117Z,62.85
2023-03-06T07:44:58.363Z,63.47
2023-03-06T07:50:04.501Z,64.73
2023-03-06T07:55:08.650Z,66.41
2023-03-06T08:00:14.376Z,66.89
2023-03-06T08:05:17.926Z,66.25
2023-03-06T08:10:21.198Z,66.66
2023-03-06T08:15:24.694Z,65.93
2023-03-06T08:20:27.959Z,64.60
2023-03-06T08:25:31.152Z,63.30
2023-03-06T08:30:34.431Z,62.08
2023-03-06T08:35:37.867Z,61.16
2023-03-06T08:40:41.532Z,57.58
2023-03-06T08:45:44.855Z,57.30
2023-03-06T08:50:48.291Z,57.94
2023-03-06T08:55:52.114Z,56.54
2023-03-06T09:00:55.715Z,55.17
2023-03-06T09:06:00.208Z,53.49
2023-03-06T09:11:03.817Z,51.34
2023-03-06T09:16:09.199Z,50.51
2023-03-06T09:21:13.315Z,47.54
2023-03-06T09:26:17.100Z,46.35
2023-03-06T09:31:20.856Z,46.34
2023-03-06T09:36:25.456Z,46.09
2023-03-06T09:41:36.299Z,46.48
2023-03-06T09:46:56.174Z,48.33
2023-03-06T09:52:58.448Z,48.40
2023-03-06T09:59:02.057Z,45.80
2023-03-06T10:04:29.113Z,45.46
2023-03-06T10:09:46.609Z,46.47
2023-03-06T10:15:17.470Z,46.71
2023-03-06T10:20:23.674Z,45.87
2023-03-06T10:26:22.544Z,46.13
2023-03-06T10:31:29.677Z,46.52
2023-03-06T10:36:33.205Z,45.58
2023-03-06T10:41:38.431Z,45.31
2023-03-06T10:46:44.283Z,46.52
2023-03-06T10:52:13.936Z,47.62
2023-03-06T10:57:27.614Z,48.53
2023-03-06T11:02:37.370Z,47.45
2023-03-06T11:08:40.155Z,47.28
2023-03-06T11:14:02.481Z,46.76
2023-03-06T11:19:21.024Z,46.69
2023-03-06T11:24:25.951Z,47.28
2023-03-06T11:29:38.450Z,47.25
2023-03-06T11:34:58.316Z,47.43
2023-03-06T11:40:18.316Z,46.63
2023-03-06T11:45:47.313Z,46.84
2023-03-06T11:51:15.341Z,46.46
2023-03-06T11:56:49.582Z,46.58
2023-03-06T12:02:06.466Z,46.68
2023-03-06T12:07:31.336Z,45.34
2023-03-06T12:12:45.456Z,44.49
2023-03-06T12:18:14.139Z,44.61
2023-03-06T12:23:36.535Z,44.69
2023-03-06T12:29:11.679Z,45.50
2023-03-06T12:34:52.138Z,45.47
2023-03-06T12:40:07.453Z,46.56
2023-03-06T12:45:34.031Z,46.53
2023-03-06T12:50:37.373Z,45.78
2023-03-06T12:55:44.490Z,45.11
2023-03-06T13:01:04.268Z,45.49
2023-03-06T13:06:44.933Z,46.41
2023-03-06T13:12:40.331Z,47.11
2023-03-06T13:17:43.602Z,46.59
2023-03-06T13:22:49.776Z,45.99
2023-03-06T13:27:53.071Z,46.18
2023-03-06T13:32:56.540Z,47.22
2023-03-06T13:38:00.822Z,46.87
2023-03-06T13:43:25.283Z,48.44
2023-03-06T13:48:47.663Z,47.18
2023-03-06T13:54:17.481Z,50.59
2023-03-06T14:00:08.360Z,49.13
2023-03-06T14:05:23.318Z,48.62
2023-03-06T14:10:27.846Z,48.57
2023-03-06T14:15:40.779Z,48.26
2023-03-06T14:20:46.704Z,49.63
2023-03-06T14:26:04.344Z,59.31
2023-03-06T14:38:29.373Z,64.13
2023-03-06T14:43:36.323Z,63.70
2023-03-06T14:48:48.000Z,63.68
2023-03-06T14:53:54.690Z,64.51
2023-03-06T14:59:05.258Z,64.12
2023-03-06T15:04:51.944Z,63.98
2023-03-06T15:09:55.588Z,63.93
2023-03-06T15:15:28.059Z,63.56
2023-03-06T15:21:17.512Z,63.12
2023-03-06T15:26:31.408Z,61.74
2023-03-06T15:31:36.928Z,60.12
2023-03-06T15:37:03.266Z,59.50
2023-03-06T15:42:30.737Z,58.15
2023-03-06T15:47:34.782Z,57.88
2023-03-06T15:52:37.988Z,58.15
2023-03-06T15:58:02.919Z,58.11
2023-03-06T16:03:06.280Z,58.40
2023-03-06T16:08:15.057Z,57.99
2023-03-06T16:13:41.691Z,59.47
2023-03-06T16:18:49.591Z,59.90
2023-03-06T16:24:13.534Z,59.22
2023-03-06T16:30:23.522Z,59.81
2023-03-06T16:35:27.495Z,60.20
2023-03-06T16:40:42.327Z,58.02
2023-03-06T16:45:50.910Z,55.24
2023-03-06T16:50:56.037Z,54.53
2023-03-06T16:56:00.223Z,54.10
2023-03-06T17:01:05.011Z,53.32
2023-03-06T17:06:20.771Z,53.82
2023-03-06T17:11:25.165Z,53.31
2023-03-06T17:16:30.017Z,54.49
2023-03-06T17:21:35.917Z,55.27
2023-03-06T17:26:40.697Z,55.11
2023-03-06T17:31:46.382Z,54.76
2023-03-06T17:36:52.704Z,56.19
2023-03-06T17:41:56.438Z,56.64
2023-03-06T17:47:00.514Z,58.42
2023-03-06T17:52:05.923Z,58.64
2023-03-06T17:57:10.109Z,60.18
2023-03-06T18:02:18.916Z,61.85
2023-03-06T18:08:01.301Z,62.98
2023-03-06T18:13:05.369Z,63.25
2023-03-06T18:18:11.457Z,62.50
2023-03-06T18:23:15.099Z,62.67
2023-03-06T18:28:19.672Z,63.51
2023-03-06T18:33:58.042Z,64.51
2023-03-06T18:39:04.009Z,65.65
2023-03-06T18:44:07.980Z,65.54
2023-03-06T18:49:20.158Z,65.59
2023-03-06T18:54:44.829Z,65.50
2023-03-06T18:59:48.831Z,65.76
2023-03-06T19:04:53.224Z,66.26
2023-03-06T19:09:59.109Z,66.31
2023-03-06T19:15:45.269Z,66.54
2023-03-06T20:28:54.409Z,66.10
2023-03-06T20:34:25.061Z,66.12
2023-03-06T20:48:30.512Z,66.24
2023-03-06T20:54:26.672Z,65.88
2023-03-06T20:59:50.620Z,65.86
2023-03-06T22:21:55.319Z,68.00
2023-03-06T22:27:11.570Z,68.90
2023-03-06T22:32:15.805Z,69.48
2023-03-06T22:37:19.604Z,69.36
2023-03-06T22:48:57.045Z,68.95
2023-03-06T22:54:01.913Z,69.11
2023-03-06T22:59:13.634Z,68.74
2023-03-06T23:04:18.449Z,69.01
2023-03-06T23:09:25.946Z,69.24
2023-03-06T23:14:51.528Z,69.45
2023-03-06T23:20:15.145Z,69.19
2023-03-06T23:25:38.248Z,69.28
2023-03-06T23:30:53.462Z,69.66
2023-03-06T23:42:28.260Z,69.13
2023-03-06T23:55:03.406Z,68.28
